sensor_id;sensor_type;location;lat;lon;timestamp;temperature;humidity
51557;DHT22;38766;53.194;5.532;2023-03-17T00:01:18;7.70;99.90
51557;DHT22;38766;53.194;5.532;2023-03-17T00:03:45;7.70;99.90
51557;DHT22;38766;53.194;5.532;2023-03-17T00:06:31;7.70;99.90
51557;DHT22;38766;53.194;5.532;2023-03-17T00:08:58;7.80;99.90
51557;DHT22;38766;53.194;5.532;2023-03-17T00:11:26;7.70;99.90
51557;DHT22;38766;53.194;5.532;2023-03-17T00:13:51;7.70;99.90
51557;DHT22;38766;53.194;5.532;2023-03-17T00:16:28;7.70;99.90
51557;DHT22;38766;53.194;5.532;2023-03-17T00:18:57;7.80;99.90
51557;DHT22;38766;53.194;5.532;2023-03-17T00:21:27;7.70;99.90
51557;DHT22;38766;53.194;5.532;2023-03-17T00:23:54;7.70;99.90
51557;DHT22;38766;53.194;5.532;2023-03-17T00:26:20;7.70;99.90
51557;DHT22;38766;53.194;5.532;2023-03-17T00:28:47;7.70;99.90
51557;DHT22;38766;53.194;5.532;2023-03-17T00:31:39;7.70;99.90
51557;DHT22;38766;53.194;5.532;2023-03-17T00:34:04;7.70;99.90
51557;DHT22;38766;53.194;5.532;2023-03-17T00:36:32;7.60;99.90
51557;DHT22;38766;53.194;5.532;2023-03-17T00:38:59;7.70;99.90
51557;DHT22;38766;53.194;5.532;2023-03-17T00:41:25;7.70;99.90
51557;DHT22;38766;53.194;5.532;2023-03-17T00:43:51;7.70;99.90
51557;DHT22;38766;53.194;5.532;2023-03-17T00:46:26;7.70;99.90
51557;DHT22;38766;53.194;5.532;2023-03-17T00:48:53;7.70;99.90
51557;DHT22;38766;53.194;5.532;2023-03-17T00:51:19;7.80;99.90
51557;DHT22;38766;53.194;5.532;2023-03-17T00:53:45;7.70;99.90
51557;DHT22;38766;53.194;5.532;2023-03-17T00:56:16;7.60;99.90
51557;DHT22;38766;53.194;5.532;2023-03-17T00:58:43;7.80;99.90
51557;DHT22;38766;53.194;5.532;2023-03-17T01:01:09;7.70;99.90
51557;DHT22;38766;53.194;5.532;2023-03-17T01:03:35;7.70;99.90
51557;DHT22;38766;53.194;5.532;2023-03-17T01:06:03;7.70;99.90
51557;DHT22;38766;53.194;5.532;2023-03-17T01:08:30;7.70;99.90
51557;DHT22;38766;53.194;5.532;2023-03-17T01:10:56;7.70;99.90
51557;DHT22;38766;53.194;5.532;2023-03-17T01:13:22;7.70;99.90
51557;DHT22;38766;53.194;5.532;2023-03-17T01:15:49;7.60;99.90
51557;DHT22;38766;53.194;5.532;2023-03-17T01:18:18;7.60;99.90
51557;DHT22;38766;53.194;5.532;2023-03-17T01:20:45;7.70;99.90
51557;DHT22;38766;53.194;5.532;2023-03-17T01:23:11;7.70;99.90
51557;DHT22;38766;53.194;5.532;2023-03-17T01:25:39;7.70;99.90
51557;DHT22;38766;53.194;5.532;2023-03-17T01:28:06;7.70;99.90
51557;DHT22;38766;53.194;5.532;2023-03-17T01:30:36;7.70;99.90
51557;DHT22;38766;53.194;5.532;2023-03-17T01:33:04;7.70;99.90
51557;DHT22;38766;53.194;5.532;2023-03-17T01:35:31;7.60;99.90
51557;DHT22;38766;53.194;5.532;2023-03-17T01:37:58;7.60;99.90
51557;DHT22;38766;53.194;5.532;2023-03-17T01:40:27;7.60;99.90
51557;DHT22;38766;53.194;5.532;2023-03-17T01:42:58;7.60;99.90
51557;DHT22;38766;53.194;5.532;2023-03-17T01:48:28;7.60;99.90
51557;DHT22;38766;53.194;5.532;2023-03-17T01:50:56;7.50;99.90
51557;DHT22;38766;53.194;5.532;2023-03-17T01:53:23;7.50;99.90
51557;DHT22;38766;53.194;5.532;2023-03-17T01:55:50;7.50;99.90
51557;DHT22;38766;53.194;5.532;2023-03-17T01:58:18;7.50;99.90
51557;DHT22;38766;53.194;5.532;2023-03-17T02:00:45;7.50;99.90
51557;DHT22;38766;53.194;5.532;2023-03-17T02:03:11;7.50;99.90
51557;DHT22;38766;53.194;5.532;2023-03-17T02:05:37;7.50;99.90
51557;DHT22;38766;53.194;5.532;2023-03-17T02:08:12;7.50;99.90
51557;DHT22;38766;53.194;5.532;2023-03-17T02:10:39;7.50;99.90
51557;DHT22;38766;53.194;5.532;2023-03-17T02:13:07;7.50;99.90
51557;DHT22;38766;53.194;5.532;2023-03-17T02:15:41;7.50;99.90
51557;DHT22;38766;53.194;5.532;2023-03-17T02:18:08;7.50;99.90
51557;DHT22;38766;53.194;5.532;2023-03-17T02:23:00;7.50;99.90
51557;DHT22;38766;53.194;5.532;2023-03-17T02:25:28;7.50;99.90
51557;DHT22;38766;53.194;5.532;2023-03-17T02:27:59;7.50;99.90
51557;DHT22;38766;53.194;5.532;2023-03-17T02:30:26;7.40;99.90
51557;DHT22;38766;53.194;5.532;2023-03-17T02:32:53;7.40;99.90
51557;DHT22;38766;53.194;5.532;2023-03-17T02:35:19;7.40;99.90
51557;DHT22;38766;53.194;5.532;2023-03-17T02:37:45;7.40;99.90
51557;DHT22;38766;53.194;5.532;2023-03-17T02:40:12;7.40;99.90
51557;DHT22;38766;53.194;5.532;2023-03-17T02:42:37;7.40;99.90
51557;DHT22;38766;53.194;5.532;2023-03-17T02:45:05;7.40;99.90
51557;DHT22;38766;53.194;5.532;2023-03-17T02:47:31;7.40;99.90
51557;DHT22;38766;53.194;5.532;2023-03-17T02:49:57;7.30;99.90
51557;DHT22;38766;53.194;5.532;2023-03-17T02:52:23;7.30;99.90
51557;DHT22;38766;53.194;5.532;2023-03-17T02:54:49;7.30;99.90
51557;DHT22;38766;53.194;5.532;2023-03-17T02:57:15;7.30;99.90
51557;DHT22;38766;53.194;5.532;2023-03-17T02:59:41;7.20;99.90
51557;DHT22;38766;53.194;5.532;2023-03-17T03:02:07;7.20;99.90
51557;DHT22;38766;53.194;5.532;2023-03-17T03:04:33;7.20;99.90
51557;DHT22;38766;53.194;5.532;2023-03-17T03:06:59;7.30;99.90
51557;DHT22;38766;53.194;5.532;2023-03-17T03:09:24;7.20;99.90
51557;DHT22;38766;53.194;5.532;2023-03-17T03:11:50;7.20;99.90
51557;DHT22;38766;53.194;5.532;2023-03-17T03:14:16;7.20;99.90
51557;DHT22;38766;53.194;5.532;2023-03-17T03:16:42;7.20;99.90
51557;DHT22;38766;53.194;5.532;2023-03-17T03:19:08;7.10;99.90
51557;DHT22;38766;53.194;5.532;2023-03-17T03:21:34;7.10;99.90
51557;DHT22;38766;53.194;5.532;2023-03-17T03:24:00;7.10;99.90
51557;DHT22;38766;53.194;5.532;2023-03-17T03:26:25;7.10;99.90
51557;DHT22;38766;53.194;5.532;2023-03-17T03:28:51;7.10;99.90
51557;DHT22;38766;53.194;5.532;2023-03-17T03:31:18;7.10;99.90
51557;DHT22;38766;53.194;5.532;2023-03-17T03:33:44;7.20;99.90
51557;DHT22;38766;53.194;5.532;2023-03-17T03:36:10;7.10;99.90
51557;DHT22;38766;53.194;5.532;2023-03-17T03:38:36;7.20;99.90
51557;DHT22;38766;53.194;5.532;2023-03-17T03:41:01;7.20;99.90
51557;DHT22;38766;53.194;5.532;2023-03-17T03:43:27;7.20;99.90
51557;DHT22;38766;53.194;5.532;2023-03-17T03:45:53;7.20;99.90
51557;DHT22;38766;53.194;5.532;2023-03-17T03:48:20;7.20;99.90
51557;DHT22;38766;53.194;5.532;2023-03-17T03:50:46;7.20;99.90
51557;DHT22;38766;53.194;5.532;2023-03-17T03:53:12;7.10;99.90
51557;DHT22;38766;53.194;5.532;2023-03-17T03:55:38;7.30;99.90
51557;DHT22;38766;53.194;5.532;2023-03-17T03:58:04;7.30;99.90
51557;DHT22;38766;53.194;5.532;2023-03-17T04:00:29;7.30;99.90
51557;DHT22;38766;53.194;5.532;2023-03-17T04:02:57;7.30;99.90
51557;DHT22;38766;53.194;5.532;2023-03-17T04:05:23;7.30;99.90
51557;DHT22;38766;53.194;5.532;2023-03-17T04:07:48;7.30;99.90
51557;DHT22;38766;53.194;5.532;2023-03-17T04:10:15;7.30;99.90
51557;DHT22;38766;53.194;5.532;2023-03-17T04:12:41;7.40;99.90
51557;DHT22;38766;53.194;5.532;2023-03-17T04:15:09;7.40;99.90
51557;DHT22;38766;53.194;5.532;2023-03-17T04:17:35;7.40;99.90
51557;DHT22;38766;53.194;5.532;2023-03-17T04:20:01;7.40;99.90
51557;DHT22;38766;53.194;5.532;2023-03-17T04:22:27;7.40;99.90
51557;DHT22;38766;53.194;5.532;2023-03-17T04:24:52;7.40;99.90
51557;DHT22;38766;53.194;5.532;2023-03-17T04:27:18;7.40;99.90
51557;DHT22;38766;53.194;5.532;2023-03-17T04:29:44;7.40;99.90
51557;DHT22;38766;53.194;5.532;2023-03-17T04:32:13;7.40;99.90
51557;DHT22;38766;53.194;5.532;2023-03-17T04:34:40;7.40;99.90
51557;DHT22;38766;53.194;5.532;2023-03-17T04:37:06;7.50;99.90
51557;DHT22;38766;53.194;5.532;2023-03-17T04:39:32;7.40;99.90
51557;DHT22;38766;53.194;5.532;2023-03-17T04:41:58;7.40;99.90
51557;DHT22;38766;53.194;5.532;2023-03-17T04:44:24;7.50;99.90
51557;DHT22;38766;53.194;5.532;2023-03-17T04:46:49;7.40;99.90
51557;DHT22;38766;53.194;5.532;2023-03-17T04:49:15;7.50;99.90
51557;DHT22;38766;53.194;5.532;2023-03-17T04:51:41;7.40;99.90
51557;DHT22;38766;53.194;5.532;2023-03-17T04:54:07;7.50;99.90
51557;DHT22;38766;53.194;5.532;2023-03-17T04:56:33;7.50;99.90
51557;DHT22;38766;53.194;5.532;2023-03-17T04:58:59;7.50;99.90
51557;DHT22;38766;53.194;5.532;2023-03-17T05:01:25;7.40;99.90
51557;DHT22;38766;53.194;5.532;2023-03-17T05:03:50;7.40;99.90
51557;DHT22;38766;53.194;5.532;2023-03-17T05:06:16;7.40;99.90
51557;DHT22;38766;53.194;5.532;2023-03-17T05:08:42;7.40;99.90
51557;DHT22;38766;53.194;5.532;2023-03-17T05:11:10;7.40;99.90
51557;DHT22;38766;53.194;5.532;2023-03-17T05:13:36;7.40;99.90
51557;DHT22;38766;53.194;5.532;2023-03-17T05:16:02;7.50;99.90
51557;DHT22;38766;53.194;5.532;2023-03-17T05:18:28;7.40;99.90
51557;DHT22;38766;53.194;5.532;2023-03-17T05:20:54;7.40;99.90
51557;DHT22;38766;53.194;5.532;2023-03-17T05:23:20;7.30;99.90
51557;DHT22;38766;53.194;5.532;2023-03-17T05:25:47;7.40;99.90
51557;DHT22;38766;53.194;5.532;2023-03-17T05:28:12;7.30;99.90
51557;DHT22;38766;53.194;5.532;2023-03-17T05:30:38;7.40;99.90
51557;DHT22;38766;53.194;5.532;2023-03-17T05:33:05;7.40;99.90
51557;DHT22;38766;53.194;5.532;2023-03-17T05:35:30;7.50;99.90
51557;DHT22;38766;53.194;5.532;2023-03-17T05:37:56;7.40;99.90
51557;DHT22;38766;53.194;5.532;2023-03-17T05:40:22;7.50;99.90
51557;DHT22;38766;53.194;5.532;2023-03-17T05:42:51;7.40;99.90
51557;DHT22;38766;53.194;5.532;2023-03-17T05:45:17;7.50;99.90
51557;DHT22;38766;53.194;5.532;2023-03-17T05:47:43;7.50;99.90
51557;DHT22;38766;53.194;5.532;2023-03-17T05:50:10;7.60;99.90
51557;DHT22;38766;53.194;5.532;2023-03-17T05:52:36;7.60;99.90
51557;DHT22;38766;53.194;5.532;2023-03-17T05:55:03;7.60;99.90
51557;DHT22;38766;53.194;5.532;2023-03-17T05:57:29;7.70;99.90
51557;DHT22;38766;53.194;5.532;2023-03-17T05:59:55;7.80;99.90
51557;DHT22;38766;53.194;5.532;2023-03-17T06:02:20;7.80;99.90
51557;DHT22;38766;53.194;5.532;2023-03-17T06:04:46;7.90;99.90
51557;DHT22;38766;53.194;5.532;2023-03-17T06:07:12;7.90;99.90
51557;DHT22;38766;53.194;5.532;2023-03-17T06:09:38;7.90;99.90
51557;DHT22;38766;53.194;5.532;2023-03-17T06:12:04;8.00;99.90
51557;DHT22;38766;53.194;5.532;2023-03-17T06:14:31;8.00;99.90
51557;DHT22;38766;53.194;5.532;2023-03-17T06:16:57;8.00;99.90
51557;DHT22;38766;53.194;5.532;2023-03-17T06:19:22;8.00;99.90
51557;DHT22;38766;53.194;5.532;2023-03-17T06:21:48;8.10;99.90
51557;DHT22;38766;53.194;5.532;2023-03-17T06:24:14;8.10;99.90
51557;DHT22;38766;53.194;5.532;2023-03-17T06:26:40;8.00;99.90
51557;DHT22;38766;53.194;5.532;2023-03-17T06:29:08;8.10;99.90
51557;DHT22;38766;53.194;5.532;2023-03-17T06:31:35;8.10;99.90
51557;DHT22;38766;53.194;5.532;2023-03-17T06:34:02;8.10;99.90
51557;DHT22;38766;53.194;5.532;2023-03-17T06:36:28;8.20;99.90
51557;DHT22;38766;53.194;5.532;2023-03-17T06:38:54;8.20;99.90
51557;DHT22;38766;53.194;5.532;2023-03-17T06:41:19;8.20;99.90
51557;DHT22;38766;53.194;5.532;2023-03-17T06:43:45;8.20;99.90
51557;DHT22;38766;53.194;5.532;2023-03-17T06:46:11;8.20;99.90
51557;DHT22;38766;53.194;5.532;2023-03-17T06:48:37;8.30;99.90
51557;DHT22;38766;53.194;5.532;2023-03-17T06:51:03;8.30;99.90
51557;DHT22;38766;53.194;5.532;2023-03-17T06:53:29;8.30;99.90
51557;DHT22;38766;53.194;5.532;2023-03-17T06:55:54;8.30;99.90
51557;DHT22;38766;53.194;5.532;2023-03-17T06:58:20;8.30;99.90
51557;DHT22;38766;53.194;5.532;2023-03-17T07:00:47;8.30;99.90
51557;DHT22;38766;53.194;5.532;2023-03-17T07:03:14;8.30;99.90
51557;DHT22;38766;53.194;5.532;2023-03-17T07:05:40;8.40;99.90
51557;DHT22;38766;53.194;5.532;2023-03-17T07:08:06;8.50;99.90
51557;DHT22;38766;53.194;5.532;2023-03-17T07:10:32;8.50;99.90
51557;DHT22;38766;53.194;5.532;2023-03-17T07:12:58;8.50;99.90
51557;DHT22;38766;53.194;5.532;2023-03-17T07:15:24;8.60;99.90
51557;DHT22;38766;53.194;5.532;2023-03-17T07:17:50;8.60;99.90
51557;DHT22;38766;53.194;5.532;2023-03-17T07:20:16;8.70;99.90
51557;DHT22;38766;53.194;5.532;2023-03-17T07:22:42;8.70;99.90
51557;DHT22;38766;53.194;5.532;2023-03-17T07:25:08;8.70;99.90
51557;DHT22;38766;53.194;5.532;2023-03-17T07:27:34;8.80;99.90
51557;DHT22;38766;53.194;5.532;2023-03-17T07:30:00;8.80;99.90
51557;DHT22;38766;53.194;5.532;2023-03-17T07:32:29;8.90;99.90
51557;DHT22;38766;53.194;5.532;2023-03-17T07:34:55;8.90;99.90
51557;DHT22;38766;53.194;5.532;2023-03-17T07:37:21;9.00;99.90
51557;DHT22;38766;53.194;5.532;2023-03-17T07:39:47;9.10;99.90
51557;DHT22;38766;53.194;5.532;2023-03-17T07:42:14;9.00;99.90
51557;DHT22;38766;53.194;5.532;2023-03-17T07:44:40;9.10;99.90
51557;DHT22;38766;53.194;5.532;2023-03-17T07:47:07;9.20;99.90
51557;DHT22;38766;53.194;5.532;2023-03-17T07:49:33;9.20;99.90
51557;DHT22;38766;53.194;5.532;2023-03-17T07:51:59;9.30;99.90
51557;DHT22;38766;53.194;5.532;2023-03-17T07:54:24;9.30;99.90
51557;DHT22;38766;53.194;5.532;2023-03-17T07:56:52;9.40;99.90
51557;DHT22;38766;53.194;5.532;2023-03-17T07:59:18;9.40;99.90
51557;DHT22;38766;53.194;5.532;2023-03-17T08:01:43;9.50;99.90
51557;DHT22;38766;53.194;5.532;2023-03-17T08:04:09;9.50;99.90
51557;DHT22;38766;53.194;5.532;2023-03-17T08:06:38;9.70;99.90
51557;DHT22;38766;53.194;5.532;2023-03-17T08:09:06;9.70;99.90
51557;DHT22;38766;53.194;5.532;2023-03-17T08:11:33;9.70;99.90
51557;DHT22;38766;53.194;5.532;2023-03-17T08:13:59;9.70;99.90
51557;DHT22;38766;53.194;5.532;2023-03-17T08:16:27;9.80;99.90
51557;DHT22;38766;53.194;5.532;2023-03-17T08:18:53;9.80;99.90
51557;DHT22;38766;53.194;5.532;2023-03-17T08:21:19;9.80;99.90
51557;DHT22;38766;53.194;5.532;2023-03-17T08:23:45;9.90;99.90
51557;DHT22;38766;53.194;5.532;2023-03-17T08:26:11;9.90;99.90
51557;DHT22;38766;53.194;5.532;2023-03-17T08:28:39;9.90;99.90
51557;DHT22;38766;53.194;5.532;2023-03-17T08:31:16;10.00;99.90
51557;DHT22;38766;53.194;5.532;2023-03-17T08:33:45;10.00;99.90
51557;DHT22;38766;53.194;5.532;2023-03-17T08:36:12;10.00;99.90
51557;DHT22;38766;53.194;5.532;2023-03-17T08:38:39;10.10;99.90
51557;DHT22;38766;53.194;5.532;2023-03-17T08:41:08;10.10;99.90
51557;DHT22;38766;53.194;5.532;2023-03-17T08:43:35;10.40;99.90
51557;DHT22;38766;53.194;5.532;2023-03-17T08:46:07;10.50;99.90
51557;DHT22;38766;53.194;5.532;2023-03-17T08:48:34;10.60;99.90
51557;DHT22;38766;53.194;5.532;2023-03-17T08:51:02;10.70;99.90
51557;DHT22;38766;53.194;5.532;2023-03-17T08:53:29;10.70;99.90
51557;DHT22;38766;53.194;5.532;2023-03-17T08:55:56;10.60;99.90
51557;DHT22;38766;53.194;5.532;2023-03-17T08:58:23;10.60;99.90
51557;DHT22;38766;53.194;5.532;2023-03-17T09:00:49;10.60;99.90
51557;DHT22;38766;53.194;5.532;2023-03-17T09:03:14;10.60;99.90
51557;DHT22;38766;53.194;5.532;2023-03-17T09:05:41;10.60;99.90
51557;DHT22;38766;53.194;5.532;2023-03-17T09:08:08;10.70;99.90
51557;DHT22;38766;53.194;5.532;2023-03-17T09:10:34;10.70;99.90
51557;DHT22;38766;53.194;5.532;2023-03-17T09:13:00;10.70;99.90
51557;DHT22;38766;53.194;5.532;2023-03-17T09:15:30;10.80;99.90
51557;DHT22;38766;53.194;5.532;2023-03-17T09:17:56;10.90;99.90
51557;DHT22;38766;53.194;5.532;2023-03-17T09:20:22;11.00;99.90
51557;DHT22;38766;53.194;5.532;2023-03-17T09:22:48;11.20;99.90
51557;DHT22;38766;53.194;5.532;2023-03-17T09:25:14;11.40;99.90
51557;DHT22;38766;53.194;5.532;2023-03-17T09:27:40;11.50;99.90
51557;DHT22;38766;53.194;5.532;2023-03-17T09:30:07;11.70;99.90
51557;DHT22;38766;53.194;5.532;2023-03-17T09:32:35;11.90;99.90
51557;DHT22;38766;53.194;5.532;2023-03-17T09:35:02;12.10;99.90
51557;DHT22;38766;53.194;5.532;2023-03-17T09:37:28;12.20;99.90
51557;DHT22;38766;53.194;5.532;2023-03-17T09:39:54;12.30;99.90
51557;DHT22;38766;53.194;5.532;2023-03-17T09:45:39;12.60;99.90
51557;DHT22;38766;53.194;5.532;2023-03-17T09:53:25;13.20;99.90
51557;DHT22;38766;53.194;5.532;2023-03-17T09:55:55;13.40;99.90
51557;DHT22;38766;53.194;5.532;2023-03-17T09:58:30;13.40;99.90
51557;DHT22;38766;53.194;5.532;2023-03-17T10:00:56;13.50;99.90
51557;DHT22;38766;53.194;5.532;2023-03-17T10:03:24;13.60;99.90
51557;DHT22;38766;53.194;5.532;2023-03-17T10:05:50;13.60;99.90
51557;DHT22;38766;53.194;5.532;2023-03-17T10:13:47;13.80;99.90
51557;DHT22;38766;53.194;5.532;2023-03-17T10:16:21;13.80;99.90
51557;DHT22;38766;53.194;5.532;2023-03-17T10:19:02;13.90;99.90
51557;DHT22;38766;53.194;5.532;2023-03-17T10:21:34;13.90;99.90
51557;DHT22;38766;53.194;5.532;2023-03-17T10:24:05;13.90;99.90
51557;DHT22;38766;53.194;5.532;2023-03-17T10:27:02;13.90;99.90
51557;DHT22;38766;53.194;5.532;2023-03-17T10:29:29;14.00;99.90
51557;DHT22;38766;53.194;5.532;2023-03-17T10:31:56;14.10;99.90
51557;DHT22;38766;53.194;5.532;2023-03-17T10:34:30;14.00;99.90
51557;DHT22;38766;53.194;5.532;2023-03-17T10:37:03;14.00;99.90
51557;DHT22;38766;53.194;5.532;2023-03-17T10:39:30;14.00;99.90
51557;DHT22;38766;53.194;5.532;2023-03-17T10:44:44;14.10;99.90
51557;DHT22;38766;53.194;5.532;2023-03-17T10:47:30;14.20;99.90
51557;DHT22;38766;53.194;5.532;2023-03-17T10:50:02;14.20;99.90
51557;DHT22;38766;53.194;5.532;2023-03-17T10:52:31;14.30;99.90
51557;DHT22;38766;53.194;5.532;2023-03-17T10:55:03;14.40;99.90
51557;DHT22;38766;53.194;5.532;2023-03-17T10:57:30;14.60;99.90
51557;DHT22;38766;53.194;5.532;2023-03-17T10:59:56;14.70;99.90
51557;DHT22;38766;53.194;5.532;2023-03-17T11:02:29;14.80;99.90
51557;DHT22;38766;53.194;5.532;2023-03-17T11:05:04;14.90;99.90
51557;DHT22;38766;53.194;5.532;2023-03-17T11:07:39;14.90;99.90
51557;DHT22;38766;53.194;5.532;2023-03-17T11:10:25;15.00;99.90
51557;DHT22;38766;53.194;5.532;2023-03-17T11:12:58;15.10;99.90
51557;DHT22;38766;53.194;5.532;2023-03-17T11:15:32;15.10;99.90
51557;DHT22;38766;53.194;5.532;2023-03-17T11:18:01;15.20;99.90
51557;DHT22;38766;53.194;5.532;2023-03-17T11:26:26;15.40;99.90
51557;DHT22;38766;53.194;5.532;2023-03-17T11:29:08;15.50;99.90
51557;DHT22;38766;53.194;5.532;2023-03-17T11:32:19;15.60;99.90
51557;DHT22;38766;53.194;5.532;2023-03-17T11:35:23;15.60;99.90
51557;DHT22;38766;53.194;5.532;2023-03-17T11:43:28;15.70;99.90
51557;DHT22;38766;53.194;5.532;2023-03-17T11:46:09;15.50;99.90
51557;DHT22;38766;53.194;5.532;2023-03-17T11:51:27;15.40;99.90
51557;DHT22;38766;53.194;5.532;2023-03-17T11:56:44;15.30;99.90
51557;DHT22;38766;53.194;5.532;2023-03-17T12:01:52;15.10;99.90
51557;DHT22;38766;53.194;5.532;2023-03-17T12:06:50;14.80;99.90
51557;DHT22;38766;53.194;5.532;2023-03-17T12:09:24;14.70;99.90
51557;DHT22;38766;53.194;5.532;2023-03-17T12:11:52;14.60;99.90
51557;DHT22;38766;53.194;5.532;2023-03-17T12:14:31;14.50;99.90
51557;DHT22;38766;53.194;5.532;2023-03-17T12:17:05;14.60;99.90
51557;DHT22;38766;53.194;5.532;2023-03-17T12:20:04;14.50;99.90
51557;DHT22;38766;53.194;5.532;2023-03-17T12:25:36;14.30;99.90
51557;DHT22;38766;53.194;5.532;2023-03-17T12:30:59;14.10;99.90
51557;DHT22;38766;53.194;5.532;2023-03-17T12:33:42;14.00;99.90
51557;DHT22;38766;53.194;5.532;2023-03-17T12:36:12;14.00;99.90
51557;DHT22;38766;53.194;5.532;2023-03-17T12:39:12;13.90;99.90
51557;DHT22;38766;53.194;5.532;2023-03-17T12:47:42;13.80;99.90
51557;DHT22;38766;53.194;5.532;2023-03-17T12:50:38;13.80;99.90
51557;DHT22;38766;53.194;5.532;2023-03-17T12:53:30;13.70;99.90
51557;DHT22;38766;53.194;5.532;2023-03-17T12:58:45;13.70;99.90
51557;DHT22;38766;53.194;5.532;2023-03-17T13:01:38;13.70;99.90
51557;DHT22;38766;53.194;5.532;2023-03-17T13:04:22;13.70;99.90
51557;DHT22;38766;53.194;5.532;2023-03-17T13:07:55;13.80;99.90
51557;DHT22;38766;53.194;5.532;2023-03-17T13:17:52;14.10;99.90
51557;DHT22;38766;53.194;5.532;2023-03-17T13:20:38;14.10;99.90
51557;DHT22;38766;53.194;5.532;2023-03-17T13:49:02;14.20;99.90
51557;DHT22;38766;53.194;5.532;2023-03-17T13:51:32;14.30;99.90
51557;DHT22;38766;53.194;5.532;2023-03-17T13:56:47;14.20;99.90
51557;DHT22;38766;53.194;5.532;2023-03-17T13:59:18;14.20;99.90
51557;DHT22;38766;53.194;5.532;2023-03-17T14:01:54;14.20;99.90
51557;DHT22;38766;53.194;5.532;2023-03-17T14:04:28;14.20;99.90
51557;DHT22;38766;53.194;5.532;2023-03-17T14:06:58;14.20;99.90
51557;DHT22;38766;53.194;5.532;2023-03-17T14:09:32;14.10;99.90
51557;DHT22;38766;53.194;5.532;2023-03-17T14:12:03;14.10;99.90
51557;DHT22;38766;53.194;5.532;2023-03-17T14:17:23;14.00;99.90
51557;DHT22;38766;53.194;5.532;2023-03-17T14:22:30;13.90;99.90
51557;DHT22;38766;53.194;5.532;2023-03-17T14:25:00;13.90;99.90
51557;DHT22;38766;53.194;5.532;2023-03-17T14:27:26;13.90;99.90
51557;DHT22;38766;53.194;5.532;2023-03-17T14:29:54;13.80;99.90
51557;DHT22;38766;53.194;5.532;2023-03-17T14:32:23;13.80;99.90
51557;DHT22;38766;53.194;5.532;2023-03-17T14:34:57;13.80;99.90
51557;DHT22;38766;53.194;5.532;2023-03-17T14:37:23;13.80;99.90
51557;DHT22;38766;53.194;5.532;2023-03-17T14:39:54;13.80;99.90
51557;DHT22;38766;53.194;5.532;2023-03-17T14:42:29;13.80;99.90
51557;DHT22;38766;53.194;5.532;2023-03-17T14:45:01;13.80;99.90
51557;DHT22;38766;53.194;5.532;2023-03-17T14:47:27;13.80;99.90
51557;DHT22;38766;53.194;5.532;2023-03-17T14:49:54;13.90;99.90
51557;DHT22;38766;53.194;5.532;2023-03-17T14:52:25;13.90;99.90
51557;DHT22;38766;53.194;5.532;2023-03-17T14:54:53;14.00;99.90
51557;DHT22;38766;53.194;5.532;2023-03-17T14:57:27;14.00;99.90
51557;DHT22;38766;53.194;5.532;2023-03-17T14:59:59;14.10;99.90
51557;DHT22;38766;53.194;5.532;2023-03-17T15:02:33;14.10;99.90
51557;DHT22;38766;53.194;5.532;2023-03-17T15:05:39;14.10;99.90
51557;DHT22;38766;53.194;5.532;2023-03-17T15:10:59;14.20;99.90
51557;DHT22;38766;53.194;5.532;2023-03-17T15:13:27;14.20;99.90
51557;DHT22;38766;53.194;5.532;2023-03-17T15:15:53;14.20;99.90
51557;DHT22;38766;53.194;5.532;2023-03-17T15:18:20;14.20;99.90
51557;DHT22;38766;53.194;5.532;2023-03-17T15:20:50;14.20;99.90
51557;DHT22;38766;53.194;5.532;2023-03-17T15:23:27;14.20;99.90
51557;DHT22;38766;53.194;5.532;2023-03-17T15:25:56;14.20;99.90
51557;DHT22;38766;53.194;5.532;2023-03-17T15:28:29;14.20;99.90
51557;DHT22;38766;53.194;5.532;2023-03-17T15:31:10;14.10;99.90
51557;DHT22;38766;53.194;5.532;2023-03-17T15:33:38;14.10;99.90
51557;DHT22;38766;53.194;5.532;2023-03-17T15:36:06;14.10;99.90
51557;DHT22;38766;53.194;5.532;2023-03-17T15:38:32;14.10;99.90
51557;DHT22;38766;53.194;5.532;2023-03-17T15:40:59;14.00;99.90
51557;DHT22;38766;53.194;5.532;2023-03-17T15:43:24;13.90;99.90
51557;DHT22;38766;53.194;5.532;2023-03-17T15:45:56;13.90;99.90
51557;DHT22;38766;53.194;5.532;2023-03-17T15:48:25;13.80;99.90
51557;DHT22;38766;53.194;5.532;2023-03-17T15:50:53;13.80;99.90
51557;DHT22;38766;53.194;5.532;2023-03-17T15:53:20;13.70;99.90
51557;DHT22;38766;53.194;5.532;2023-03-17T15:55:46;13.70;99.90
51557;DHT22;38766;53.194;5.532;2023-03-17T15:58:12;13.60;99.90
51557;DHT22;38766;53.194;5.532;2023-03-17T16:00:38;13.60;99.90
51557;DHT22;38766;53.194;5.532;2023-03-17T16:03:28;13.70;99.90
51557;DHT22;38766;53.194;5.532;2023-03-17T16:05:56;13.60;99.90
51557;DHT22;38766;53.194;5.532;2023-03-17T16:08:22;13.60;99.90
51557;DHT22;38766;53.194;5.532;2023-03-17T16:10:48;13.60;99.90
51557;DHT22;38766;53.194;5.532;2023-03-17T16:13:14;13.50;99.90
51557;DHT22;38766;53.194;5.532;2023-03-17T16:15:42;13.50;99.90
51557;DHT22;38766;53.194;5.532;2023-03-17T16:18:13;13.50;99.90
51557;DHT22;38766;53.194;5.532;2023-03-17T16:20:47;13.40;99.90
51557;DHT22;38766;53.194;5.532;2023-03-17T16:23:16;13.40;99.90
51557;DHT22;38766;53.194;5.532;2023-03-17T16:25:43;13.40;99.90
51557;DHT22;38766;53.194;5.532;2023-03-17T16:28:24;13.30;99.90
51557;DHT22;38766;53.194;5.532;2023-03-17T16:30:52;13.30;99.90
51557;DHT22;38766;53.194;5.532;2023-03-17T16:33:22;13.20;99.90
51557;DHT22;38766;53.194;5.532;2023-03-17T16:35:49;13.10;99.90
51557;DHT22;38766;53.194;5.532;2023-03-17T16:38:19;13.10;99.90
51557;DHT22;38766;53.194;5.532;2023-03-17T16:40:51;13.10;99.90
51557;DHT22;38766;53.194;5.532;2023-03-17T16:43:28;13.00;99.90
51557;DHT22;38766;53.194;5.532;2023-03-17T16:45:56;12.90;99.90
51557;DHT22;38766;53.194;5.532;2023-03-17T16:48:22;12.90;99.90
51557;DHT22;38766;53.194;5.532;2023-03-17T16:50:49;12.80;99.90
51557;DHT22;38766;53.194;5.532;2023-03-17T16:53:15;12.80;99.90
51557;DHT22;38766;53.194;5.532;2023-03-17T16:55:41;12.80;99.90
51557;DHT22;38766;53.194;5.532;2023-03-17T17:00:44;12.70;99.90
51557;DHT22;38766;53.194;5.532;2023-03-17T17:03:10;12.70;99.90
51557;DHT22;38766;53.194;5.532;2023-03-17T17:05:37;12.70;99.90
51557;DHT22;38766;53.194;5.532;2023-03-17T17:08:03;12.60;99.90
51557;DHT22;38766;53.194;5.532;2023-03-17T17:10:30;12.60;99.90
51557;DHT22;38766;53.194;5.532;2023-03-17T17:12:57;12.50;99.90
51557;DHT22;38766;53.194;5.532;2023-03-17T17:15:23;12.50;99.90
51557;DHT22;38766;53.194;5.532;2023-03-17T17:17:53;12.50;99.90
51557;DHT22;38766;53.194;5.532;2023-03-17T17:20:29;12.40;99.90
51557;DHT22;38766;53.194;5.532;2023-03-17T17:22:57;12.40;99.90
51557;DHT22;38766;53.194;5.532;2023-03-17T17:25:24;12.40;99.90
51557;DHT22;38766;53.194;5.532;2023-03-17T17:27:49;12.30;99.90
51557;DHT22;38766;53.194;5.532;2023-03-17T17:30:18;12.30;99.90
51557;DHT22;38766;53.194;5.532;2023-03-17T17:32:44;12.30;99.90
51557;DHT22;38766;53.194;5.532;2023-03-17T17:35:11;12.30;99.90
51557;DHT22;38766;53.194;5.532;2023-03-17T17:37:38;12.20;99.90